Terminal Aerodrome Forecast
Issued by NWS

Home | Current Version | Previous Version | Graphics & Text | Print | Product List | Glossary On
Versions: 1 2 3 4 5 6 7 8 9 10 11 12 13 14 15 16 17
753
FTUS43 KMPX 230520
TAFAXN
TAF
KAXN 230520Z 2306/2406 15016KT P6SM OVC070
     FM231800 16014G20KT P6SM OVC030
     FM232100 14011KT 4SM -RA BR OVC014
     FM240300 08006KT 1SM BR OVC006=

USA.gov is the U.S. government's official web portal to all federal, state and local government web resources and services.